Time;durP1;ratioP1;P1;durP2;ratioP2;P2;SDS_P1;SDS_P2;PMS_P1;PMS_P2;Temp;Humidity;BMP_temperature;BMP_pressure;BME280_temperature;BME280_humidity;BME280_pressure;Samples;Min_cycle;Max_cycle;Signal;HPM_P1;HPM_P2
2022/10/30 00:00:50;;;;;;;10.10;5.20;;;16.00;99.90;;;;;;5112713;28;20192;-72
2022/10/30 00:03:16;;;;;;;12.33;5.00;;;16.00;99.90;;;;;;5112658;28;20178;-72
2022/10/30 00:05:44;;;;;;;11.67;6.30;;;16.00;99.90;;;;;;5112045;28;20229;-72
2022/10/30 00:08:14;;;;;;;14.87;5.90;;;16.10;99.90;;;;;;5114605;28;20399;-72
2022/10/30 00:10:40;;;;;;;18.90;7.30;;;16.10;99.90;;;;;;5112734;28;20423;-72
2022/10/30 00:13:06;;;;;;;8.73;5.93;;;16.10;99.90;;;;;;5114848;28;20923;-72
2022/10/30 00:15:32;;;;;;;7.80;5.40;;;16.10;99.90;;;;;;5113527;28;20463;-72
2022/10/30 00:17:57;;;;;;;8.90;6.00;;;16.10;99.90;;;;;;5112393;28;20446;-71
2022/10/30 00:20:23;;;;;;;14.77;6.23;;;16.10;99.90;;;;;;5114447;28;20425;-71
2022/10/30 00:22:49;;;;;;;8.53;5.13;;;16.10;99.90;;;;;;5113123;28;20165;-72
2022/10/30 00:25:14;;;;;;;12.53;4.97;;;16.10;99.90;;;;;;5113744;28;20298;-72
2022/10/30 00:27:40;;;;;;;8.23;5.50;;;16.10;99.90;;;;;;5114881;28;20172;-72
2022/10/30 00:30:06;;;;;;;7.70;5.13;;;16.10;99.90;;;;;;5113364;28;20692;-72
2022/10/30 00:32:32;;;;;;;6.87;5.37;;;16.10;99.90;;;;;;5112431;28;20169;-72
2022/10/30 00:34:57;;;;;;;11.20;4.80;;;16.00;99.90;;;;;;5112237;28;20756;-72
2022/10/30 00:37:23;;;;;;;6.60;5.57;;;16.00;99.90;;;;;;5113650;28;20655;-72
2022/10/30 00:39:48;;;;;;;7.93;5.83;;;16.00;99.90;;;;;;5113464;28;20181;-71
2022/10/30 00:42:15;;;;;;;8.83;4.90;;;16.00;99.90;;;;;;5112332;28;20562;-73
2022/10/30 00:44:43;;;;;;;11.57;5.90;;;16.00;99.90;;;;;;5112069;28;20192;-72
2022/10/30 00:47:32;;;;;;;12.83;5.67;;;16.00;99.90;;;;;;5112014;28;20908;-71
2022/10/30 00:50:03;;;;;;;6.47;4.47;;;16.00;99.90;;;;;;5091277;28;20438;-72
2022/10/30 00:52:34;;;;;;;8.83;4.80;;;15.90;99.90;;;;;;5094194;28;20399;-72
2022/10/30 00:55:06;;;;;;;10.07;4.80;;;15.90;99.90;;;;;;5091908;28;20387;-72
2022/10/30 00:57:32;;;;;;;8.20;4.17;;;15.80;99.90;;;;;;5091771;28;20463;-72
2022/10/30 00:59:58;;;;;;;7.43;4.47;;;15.70;99.90;;;;;;5096872;28;20438;-72
2022/10/30 01:02:24;;;;;;;6.90;4.17;;;15.70;99.90;;;;;;5111654;28;20414;-72
2022/10/30 01:04:52;;;;;;;6.43;4.30;;;15.60;99.90;;;;;;5112116;28;20391;-72
2022/10/30 01:07:17;;;;;;;7.33;4.20;;;15.60;99.90;;;;;;5112124;28;20406;-71
2022/10/30 01:09:45;;;;;;;5.27;4.43;;;15.50;99.90;;;;;;5112705;28;20421;-72
2022/10/30 01:12:11;;;;;;;6.50;5.17;;;15.50;99.90;;;;;;5113100;28;20226;-72
2022/10/30 01:14:42;;;;;;;6.10;4.17;;;15.50;99.90;;;;;;5112649;28;20948;-72
2022/10/30 01:17:31;;;;;;;7.60;5.30;;;15.40;99.90;;;;;;5115439;28;20169;-72
2022/10/30 01:20:06;;;;;;;7.83;4.97;;;15.50;99.90;;;;;;5118015;28;20509;-72
2022/10/30 01:22:50;;;;;;;8.17;4.63;;;15.50;99.90;;;;;;5115847;28;20398;-72
2022/10/30 01:25:41;;;;;;;5.60;4.07;;;15.50;99.90;;;;;;5115295;28;20917;-71
2022/10/30 01:28:21;;;;;;;5.23;4.30;;;15.50;99.90;;;;;;5106992;28;20425;-72
2022/10/30 01:30:59;;;;;;;8.97;4.50;;;15.50;99.90;;;;;;5114601;28;20450;-72
2022/10/30 01:33:39;;;;;;;6.07;4.63;;;15.50;99.90;;;;;;5116024;28;20394;-72
2022/10/30 01:36:37;;;;;;;7.50;4.07;;;15.50;99.90;;;;;;5116006;28;20791;-72
2022/10/30 01:39:12;;;;;;;8.40;4.73;;;15.40;99.90;;;;;;5115424;28;20442;-71
2022/10/30 01:41:38;;;;;;;12.60;5.23;;;15.40;99.90;;;;;;5115515;28;20405;-71
2022/10/30 01:44:17;;;;;;;8.80;5.73;;;15.40;99.90;;;;;;5114539;28;20407;-72
2022/10/30 01:47:01;;;;;;;10.20;5.93;;;15.30;99.90;;;;;;5115715;28;20202;-72
2022/10/30 01:49:51;;;;;;;11.93;4.93;;;15.20;99.90;;;;;;5094841;28;20430;-71
2022/10/30 01:52:30;;;;;;;7.60;3.80;;;15.20;99.90;;;;;;5094853;28;20399;-72
2022/10/30 01:54:55;;;;;;;7.77;4.90;;;15.10;99.90;;;;;;5094836;28;20418;-71
2022/10/30 01:57:35;;;;;;;5.20;3.90;;;15.00;99.90;;;;;;5094575;28;20892;-71
2022/10/30 02:00:10;;;;;;;20.97;5.60;;;15.00;99.90;;;;;;5103062;28;20188;-71
2022/10/30 02:02:36;;;;;;;8.90;4.17;;;15.00;99.90;;;;;;5115095;28;20396;-72
2022/10/30 02:05:05;;;;;;;8.27;4.30;;;15.00;99.90;;;;;;5113789;28;20452;-72
2022/10/30 02:07:31;;;;;;;8.07;5.33;;;15.10;99.90;;;;;;5113734;28;20908;-72
2022/10/30 02:09:56;;;;;;;9.00;4.53;;;15.10;99.90;;;;;;5114913;28;20510;-72
2022/10/30 02:12:23;;;;;;;13.47;5.20;;;15.10;99.90;;;;;;5113605;28;20169;-71
2022/10/30 02:14:53;;;;;;;5.40;4.00;;;15.10;99.90;;;;;;5114572;28;20214;-71
2022/10/30 02:17:19;;;;;;;8.73;5.40;;;15.10;99.90;;;;;;5114954;28;20406;-72
2022/10/30 02:19:45;;;;;;;12.10;5.37;;;15.00;99.90;;;;;;5114760;28;20415;-72
2022/10/30 02:22:11;;;;;;;6.53;4.07;;;15.00;99.90;;;;;;5113519;28;20456;-72
2022/10/30 02:24:37;;;;;;;11.13;5.23;;;14.90;99.90;;;;;;5114305;28;20646;-72
2022/10/30 02:27:03;;;;;;;6.00;4.70;;;14.90;99.90;;;;;;5114091;28;20165;-71
2022/10/30 02:29:28;;;;;;;8.20;5.53;;;14.80;99.90;;;;;;5114465;28;20441;-71
2022/10/30 02:31:54;;;;;;;18.00;6.30;;;14.80;99.90;;;;;;5115332;28;20899;-71
2022/10/30 02:34:20;;;;;;;6.00;4.60;;;14.80;99.90;;;;;;5115530;28;20165;-72
2022/10/30 02:36:45;;;;;;;6.83;4.23;;;14.80;99.90;;;;;;5115537;28;20177;-72
2022/10/30 02:39:11;;;;;;;15.03;5.57;;;14.80;99.90;;;;;;5114470;28;20201;-72
2022/10/30 02:41:37;;;;;;;8.70;4.40;;;14.70;99.90;;;;;;5115903;28;20161;-72
2022/10/30 02:44:03;;;;;;;12.93;4.93;;;14.70;99.90;;;;;;5115748;28;20243;-72
2022/10/30 02:46:29;;;;;;;5.10;4.20;;;14.80;99.90;;;;;;5115720;28;20224;-72
2022/10/30 02:48:54;;;;;;;7.20;4.00;;;14.80;99.90;;;;;;5115422;28;20450;-72
2022/10/30 02:51:20;;;;;;;9.33;4.43;;;14.80;99.90;;;;;;5116098;28;20169;-72
2022/10/30 02:53:46;;;;;;;7.47;3.80;;;14.80;99.90;;;;;;5116251;28;20169;-72
2022/10/30 02:56:13;;;;;;;5.50;3.50;;;14.80;99.90;;;;;;5114234;28;20167;-71
2022/10/30 02:58:39;;;;;;;7.07;3.93;;;14.80;99.90;;;;;;5113677;28;20449;-71
2022/10/30 03:01:16;;;;;;;10.80;4.13;;;14.80;99.90;;;;;;5113825;28;20420;-71
2022/10/30 03:03:42;;;;;;;5.30;3.60;;;14.80;99.90;;;;;;5114786;28;20447;-72
2022/10/30 03:06:10;;;;;;;7.70;4.27;;;14.70;99.90;;;;;;5113636;28;20402;-72
2022/10/30 03:08:36;;;;;;;7.47;4.33;;;14.70;99.90;;;;;;5113798;28;20165;-72
2022/10/30 03:11:10;;;;;;;6.27;3.60;;;14.70;99.90;;;;;;5113373;28;20417;-72
2022/10/30 03:13:39;;;;;;;6.33;3.17;;;14.70;99.90;;;;;;5113725;27;20172;-72
2022/10/30 03:16:08;;;;;;;4.33;3.40;;;14.60;99.90;;;;;;5113444;28;21053;-71
2022/10/30 03:18:34;;;;;;;8.00;4.13;;;14.50;99.90;;;;;;5113468;28;20449;-71
2022/10/30 03:21:02;;;;;;;6.40;3.97;;;14.40;99.90;;;;;;5113552;28;20402;-71
2022/10/30 03:23:28;;;;;;;7.10;3.83;;;14.30;99.90;;;;;;5113419;28;20611;-72
2022/10/30 03:25:55;;;;;;;6.30;4.33;;;14.30;99.90;;;;;;5113133;28;20422;-72
2022/10/30 03:28:22;;;;;;;7.77;5.17;;;14.10;99.90;;;;;;5113523;28;20277;-71
2022/10/30 03:30:49;;;;;;;11.03;4.63;;;14.10;99.90;;;;;;5112104;28;20483;-71
2022/10/30 03:33:14;;;;;;;7.60;4.30;;;14.00;99.90;;;;;;5113121;28;20419;-71
2022/10/30 03:35:43;;;;;;;10.13;4.40;;;14.10;99.90;;;;;;5112874;28;20414;-71
2022/10/30 03:38:09;;;;;;;7.90;4.60;;;14.10;99.90;;;;;;5113048;28;20287;-71
2022/10/30 03:40:35;;;;;;;10.70;4.63;;;14.10;99.90;;;;;;5112309;28;20487;-71
2022/10/30 03:43:00;;;;;;;8.80;5.13;;;14.10;99.90;;;;;;5112850;28;20834;-71
2022/10/30 03:45:26;;;;;;;7.50;4.63;;;14.10;99.90;;;;;;5112764;28;20240;-71
2022/10/30 03:47:51;;;;;;;7.60;4.80;;;14.10;99.90;;;;;;5113005;28;20175;-71
2022/10/30 03:50:17;;;;;;;10.10;5.27;;;14.10;99.90;;;;;;5113006;28;20552;-72
2022/10/30 03:52:42;;;;;;;9.43;5.67;;;14.00;99.90;;;;;;5113014;28;20172;-72
2022/10/30 03:55:08;;;;;;;8.13;5.97;;;13.90;99.90;;;;;;5111510;28;20181;-71
2022/10/30 03:57:37;;;;;;;7.27;5.20;;;13.90;99.90;;;;;;5112820;28;20165;-72
2022/10/30 04:00:04;;;;;;;12.37;5.80;;;14.00;99.90;;;;;;5112924;28;20525;-72
2022/10/30 04:02:30;;;;;;;10.00;5.27;;;14.00;99.90;;;;;;5113842;28;20386;-72
2022/10/30 04:04:55;;;;;;;11.77;5.30;;;13.90;99.90;;;;;;5113320;28;20914;-72
2022/10/30 04:07:21;;;;;;;14.73;5.90;;;13.90;99.90;;;;;;5113409;28;20161;-72
2022/10/30 04:09:46;;;;;;;8.37;5.47;;;13.90;99.90;;;;;;5112651;28;20189;-72
2022/10/30 04:12:12;;;;;;;12.73;6.53;;;13.90;99.90;;;;;;5112711;28;20157;-72
2022/10/30 04:14:37;;;;;;;9.93;5.50;;;13.90;99.90;;;;;;5112583;28;20526;-72
2022/10/30 04:17:05;;;;;;;9.10;6.10;;;13.90;99.90;;;;;;5112376;28;20161;-71
2022/10/30 04:19:30;;;;;;;12.87;7.27;;;13.90;99.90;;;;;;5112413;28;20197;-71
2022/10/30 04:21:56;;;;;;;10.70;6.00;;;13.80;99.90;;;;;;5111603;28;20407;-72
2022/10/30 04:24:22;;;;;;;15.07;5.80;;;13.80;99.90;;;;;;5112167;28;20176;-72
2022/10/30 04:26:47;;;;;;;9.40;6.40;;;13.70;99.90;;;;;;5112662;28;20161;-72
2022/10/30 04:29:13;;;;;;;19.70;6.90;;;13.70;99.90;;;;;;5112435;28;20833;-72
2022/10/30 04:31:38;;;;;;;11.83;6.93;;;13.80;99.90;;;;;;5112211;28;20260;-72
2022/10/30 04:34:04;;;;;;;9.40;6.50;;;13.80;99.90;;;;;;5112324;28;20527;-72
2022/10/30 04:36:32;;;;;;;14.83;7.13;;;13.80;99.90;;;;;;5113158;28;20253;-72
2022/10/30 04:38:58;;;;;;;14.77;6.10;;;13.70;99.90;;;;;;5113402;28;20193;-72
2022/10/30 04:41:24;;;;;;;8.93;5.47;;;13.70;99.90;;;;;;5113629;28;20414;-72
2022/10/30 04:43:50;;;;;;;8.60;6.90;;;13.60;99.90;;;;;;5113625;28;20430;-72
2022/10/30 04:46:16;;;;;;;9.40;6.17;;;13.60;99.90;;;;;;5113410;28;20769;-72
2022/10/30 04:48:42;;;;;;;9.33;6.10;;;13.60;99.90;;;;;;5112210;28;20514;-72
2022/10/30 04:51:08;;;;;;;10.90;7.17;;;13.50;99.90;;;;;;5114790;28;20685;-72
2022/10/30 04:53:34;;;;;;;9.20;6.07;;;13.50;99.90;;;;;;5116219;28;20388;-72
2022/10/30 04:55:59;;;;;;;12.17;7.10;;;13.40;99.90;;;;;;5116042;28;20433;-72
2022/10/30 04:58:25;;;;;;;12.50;7.13;;;13.40;99.90;;;;;;5116194;28;20196;-72
2022/10/30 05:00:50;;;;;;;9.53;6.07;;;13.40;99.90;;;;;;5116251;28;20165;-72
2022/10/30 05:03:23;;;;;;;12.20;6.37;;;13.40;99.90;;;;;;5116204;28;20235;-72
2022/10/30 05:05:58;;;;;;;12.03;6.87;;;13.30;99.90;;;;;;5115673;28;20192;-72
2022/10/30 05:08:23;;;;;;;14.93;6.20;;;13.20;99.90;;;;;;5116121;28;20758;-72
2022/10/30 05:10:49;;;;;;;12.60;6.60;;;13.10;99.90;;;;;;5116014;28;20413;-71
2022/10/30 05:13:15;;;;;;;8.43;5.47;;;13.10;99.90;;;;;;5115980;28;20276;-71
2022/10/30 05:15:40;;;;;;;12.40;6.03;;;13.00;99.90;;;;;;5115636;28;20173;-72
2022/10/30 05:18:06;;;;;;;9.77;7.17;;;12.90;99.90;;;;;;5115662;28;20201;-72
2022/10/30 05:20:31;;;;;;;12.70;7.33;;;12.90;99.90;;;;;;5115598;28;20196;-72
2022/10/30 05:22:58;;;;;;;11.80;6.70;;;12.90;99.90;;;;;;5115740;28;20169;-72
2022/10/30 05:25:24;;;;;;;10.47;6.00;;;12.90;99.90;;;;;;5115648;28;20165;-72
2022/10/30 05:27:56;;;;;;;9.73;6.20;;;12.90;99.90;;;;;;5115889;28;20513;-72
2022/10/30 05:30:21;;;;;;;11.53;6.93;;;12.90;99.90;;;;;;5115499;27;20461;-72
2022/10/30 05:32:47;;;;;;;8.97;6.63;;;12.80;99.90;;;;;;5115656;28;20441;-72
2022/10/30 05:35:12;;;;;;;5.93;5.30;;;12.80;99.90;;;;;;5115524;28;20214;-72
2022/10/30 05:37:38;;;;;;;11.10;5.80;;;12.90;99.90;;;;;;5115412;28;20281;-71
2022/10/30 05:40:04;;;;;;;8.17;5.47;;;12.90;99.90;;;;;;5115592;28;20237;-72
2022/10/30 05:42:29;;;;;;;10.83;6.60;;;12.90;99.90;;;;;;5116732;28;20169;-72
2022/10/30 05:44:55;;;;;;;7.33;5.10;;;12.90;99.90;;;;;;5116032;28;20450;-72
2022/10/30 05:47:20;;;;;;;23.57;5.67;;;12.90;99.90;;;;;;5115113;28;20165;-71
2022/10/30 05:49:46;;;;;;;10.83;5.30;;;12.90;99.90;;;;;;5116636;28;20191;-72
2022/10/30 05:52:11;;;;;;;9.93;5.33;;;12.90;99.90;;;;;;5115312;28;20656;-71
2022/10/30 05:54:37;;;;;;;11.97;5.43;;;12.90;99.90;;;;;;5115203;28;20229;-72
2022/10/30 05:57:02;;;;;;;7.63;5.60;;;12.90;99.90;;;;;;5115181;28;20197;-71
2022/10/30 05:59:28;;;;;;;11.33;5.67;;;12.80;99.90;;;;;;5115158;28;20207;-72
2022/10/30 06:01:54;;;;;;;8.97;6.40;;;12.80;99.90;;;;;;5114149;28;20225;-72
2022/10/30 06:04:20;;;;;;;9.07;6.13;;;12.80;99.90;;;;;;5114876;28;20165;-72
2022/10/30 06:06:45;;;;;;;14.83;6.93;;;12.70;99.90;;;;;;5115006;28;20821;-72
2022/10/30 06:09:11;;;;;;;14.20;7.83;;;12.70;99.90;;;;;;5114621;28;20196;-72
2022/10/30 06:11:36;;;;;;;13.83;7.77;;;12.70;99.90;;;;;;5114983;28;20161;-72
2022/10/30 06:14:02;;;;;;;13.10;6.53;;;12.70;99.90;;;;;;5115807;28;20169;-72
2022/10/30 06:16:27;;;;;;;10.17;5.63;;;12.60;99.90;;;;;;5115919;28;20173;-72
2022/10/30 06:18:53;;;;;;;17.23;6.47;;;12.50;99.90;;;;;;5115587;28;20201;-72
2022/10/30 06:21:19;;;;;;;8.20;5.30;;;12.50;99.90;;;;;;5114012;28;20175;-72
2022/10/30 06:23:44;;;;;;;9.33;5.43;;;12.60;99.90;;;;;;5115560;28;20668;-72
2022/10/30 06:26:10;;;;;;;9.70;5.03;;;12.50;99.90;;;;;;5115929;28;20169;-72
2022/10/30 06:28:35;;;;;;;16.03;4.90;;;12.40;99.90;;;;;;5115482;28;20247;-72
2022/10/30 06:31:01;;;;;;;8.30;5.93;;;12.30;99.90;;;;;;5114125;28;20176;-72
2022/10/30 06:33:26;;;;;;;8.60;5.70;;;12.30;99.90;;;;;;5113998;28;20169;-72
2022/10/30 06:35:52;;;;;;;6.60;3.97;;;12.20;99.90;;;;;;5114948;28;20169;-72
2022/10/30 06:38:17;;;;;;;7.60;4.20;;;12.20;99.90;;;;;;5115173;28;20249;-72
2022/10/30 06:40:43;;;;;;;15.53;9.57;;;12.20;99.90;;;;;;5115327;28;20188;-72
2022/10/30 06:43:08;;;;;;;8.60;5.50;;;12.30;99.90;;;;;;5115426;28;20252;-72
2022/10/30 06:45:34;;;;;;;5.77;3.63;;;12.30;99.90;;;;;;5116285;28;20256;-72
2022/10/30 06:48:00;;;;;;;9.10;3.87;;;12.30;99.90;;;;;;5114650;28;20172;-72
2022/10/30 06:50:26;;;;;;;9.20;3.47;;;12.30;99.90;;;;;;5114185;28;20188;-72
2022/10/30 06:52:54;;;;;;;7.53;4.00;;;12.30;99.90;;;;;;5113237;28;20903;-72
2022/10/30 06:55:19;;;;;;;6.50;3.80;;;12.30;99.90;;;;;;5113638;28;20200;-72
2022/10/30 06:57:45;;;;;;;10.00;4.40;;;12.40;99.90;;;;;;5113933;28;20489;-72
2022/10/30 07:00:11;;;;;;;7.13;3.93;;;12.50;99.90;;;;;;5114599;28;20219;-72
2022/10/30 07:02:37;;;;;;;11.90;4.50;;;12.60;99.90;;;;;;5115139;28;20169;-72
2022/10/30 07:05:03;;;;;;;8.20;4.27;;;12.60;99.90;;;;;;5115366;28;20407;-72
2022/10/30 07:07:29;;;;;;;6.67;3.67;;;12.60;99.90;;;;;;5115313;27;20220;-71
2022/10/30 07:09:54;;;;;;;4.10;3.20;;;12.60;99.90;;;;;;5115159;28;20757;-72
2022/10/30 07:12:20;;;;;;;9.53;4.40;;;12.70;99.90;;;;;;5115223;28;20161;-72
2022/10/30 07:14:45;;;;;;;12.87;5.33;;;12.90;99.90;;;;;;5113147;28;20179;-72
2022/10/30 07:17:11;;;;;;;8.50;4.47;;;13.00;99.90;;;;;;5113712;28;20590;-72
2022/10/30 07:19:36;;;;;;;9.23;4.93;;;13.10;99.90;;;;;;5113508;28;20200;-72
2022/10/30 07:22:02;;;;;;;4.70;4.20;;;13.30;99.90;;;;;;5112079;28;20179;-72
2022/10/30 07:24:28;;;;;;;8.77;5.40;;;13.40;99.90;;;;;;5113413;28;20755;-72
2022/10/30 07:26:54;;;;;;;11.07;5.50;;;13.50;99.90;;;;;;5113652;28;20426;-72
2022/10/30 07:29:20;;;;;;;9.83;5.10;;;13.60;99.90;;;;;;5113526;28;20188;-72
2022/10/30 07:31:46;;;;;;;9.90;5.30;;;13.70;99.90;;;;;;5113479;28;21164;-72
2022/10/30 07:34:12;;;;;;;9.40;6.30;;;13.90;99.90;;;;;;5113335;28;20689;-71
2022/10/30 07:36:37;;;;;;;9.03;5.60;;;14.00;99.90;;;;;;5115013;28;20434;-72
2022/10/30 07:39:03;;;;;;;8.13;5.90;;;14.20;99.90;;;;;;5113266;27;20578;-72
2022/10/30 07:41:28;;;;;;;11.27;5.67;;;14.30;99.90;;;;;;5113093;28;20165;-71
2022/10/30 07:43:54;;;;;;;15.73;5.67;;;14.50;99.90;;;;;;5113070;28;20684;-72
2022/10/30 07:46:19;;;;;;;11.13;7.83;;;14.70;99.90;;;;;;5112911;28;20168;-72
2022/10/30 07:48:45;;;;;;;10.40;5.53;;;14.90;99.90;;;;;;5112375;28;20216;-72
2022/10/30 07:51:10;;;;;;;10.60;5.70;;;15.20;99.90;;;;;;5113610;28;20168;-72
2022/10/30 07:53:36;;;;;;;9.80;5.60;;;15.40;99.90;;;;;;5114421;28;20165;-72
2022/10/30 07:56:02;;;;;;;8.90;5.33;;;15.80;99.90;;;;;;5112374;28;20211;-72
2022/10/30 07:58:27;;;;;;;7.87;6.30;;;16.10;99.90;;;;;;5112388;28;20275;-71
2022/10/30 08:00:53;;;;;;;6.83;5.83;;;16.30;99.90;;;;;;5111590;28;20264;-72
2022/10/30 08:03:18;;;;;;;11.20;7.40;;;16.50;99.90;;;;;;5112996;28;20184;-72
2022/10/30 08:05:44;;;;;;;9.00;6.20;;;16.80;99.90;;;;;;5113022;28;20626;-72
2022/10/30 08:08:09;;;;;;;8.93;5.67;;;17.10;99.90;;;;;;5112733;28;20527;-71
2022/10/30 08:10:35;;;;;;;13.93;5.50;;;17.60;99.90;;;;;;5112725;28;20697;-72
2022/10/30 08:13:01;;;;;;;7.80;5.80;;;18.20;99.90;;;;;;5112670;28;20164;-72
2022/10/30 08:15:27;;;;;;;15.87;7.00;;;19.00;99.90;;;;;;5112378;28;20506;-72
2022/10/30 08:17:52;;;;;;;6.60;5.17;;;19.80;99.90;;;;;;5112245;28;20537;-72
2022/10/30 08:20:20;;;;;;;6.50;5.20;;;20.20;99.90;;;;;;5111091;28;20661;-72
2022/10/30 08:22:48;;;;;;;11.67;5.50;;;20.50;99.90;;;;;;5112629;28;20199;-72
2022/10/30 08:25:14;;;;;;;16.13;6.33;;;21.00;99.90;;;;;;5112233;28;20517;-73
2022/10/30 08:27:54;;;;;;;9.60;5.40;;;21.60;99.90;;;;;;5115113;28;20406;-72
2022/10/30 08:30:21;;;;;;;10.70;6.30;;;22.30;99.90;;;;;;5114825;28;20463;-72
2022/10/30 08:32:46;;;;;;;11.20;5.73;;;22.70;99.90;;;;;;5113651;28;20460;-73
2022/10/30 08:35:12;;;;;;;7.80;5.57;;;22.60;99.90;;;;;;5114664;28;20464;-73
2022/10/30 08:37:38;;;;;;;6.77;5.50;;;22.50;99.90;;;;;;5112956;28;20807;-72
2022/10/30 08:40:04;;;;;;;10.50;5.63;;;22.30;99.90;;;;;;5112386;28;20188;-72
2022/10/30 08:42:29;;;;;;;7.70;5.70;;;22.10;99.90;;;;;;5112525;28;20165;-72
2022/10/30 08:44:55;;;;;;;8.90;6.13;;;22.20;99.90;;;;;;5112059;28;20395;-72
2022/10/30 08:47:20;;;;;;;6.80;5.23;;;22.80;99.90;;;;;;5112170;28;20176;-73
2022/10/30 08:49:46;;;;;;;13.43;6.70;;;22.70;99.90;;;;;;5112410;28;20212;-72
2022/10/30 08:52:11;;;;;;;9.40;5.73;;;22.80;99.90;;;;;;5112342;28;20244;-72
2022/10/30 08:54:37;;;;;;;12.00;6.23;;;22.90;99.90;;;;;;5112044;28;20173;-73
2022/10/30 08:57:02;;;;;;;11.93;6.27;;;22.80;99.90;;;;;;5112255;28;20632;-73
2022/10/30 08:59:28;;;;;;;13.90;6.10;;;22.90;99.90;;;;;;5112169;28;20209;-73
2022/10/30 09:01:53;;;;;;;8.57;6.13;;;23.10;99.90;;;;;;5112302;28;20629;-72
2022/10/30 09:04:19;;;;;;;10.63;6.77;;;22.70;99.90;;;;;;5112061;28;20171;-72
2022/10/30 09:06:44;;;;;;;9.57;6.87;;;23.10;99.90;;;;;;5112300;28;20281;-72
2022/10/30 09:09:10;;;;;;;6.67;4.27;;;23.40;99.90;;;;;;5111856;28;20193;-72
2022/10/30 09:11:36;;;;;;;7.23;5.20;;;23.90;99.90;;;;;;5112179;28;20167;-72
2022/10/30 09:14:02;;;;;;;8.80;5.30;;;24.50;99.90;;;;;;5112025;28;20745;-72
2022/10/30 09:16:27;;;;;;;9.23;5.40;;;25.30;99.90;;;;;;5113382;28;20184;-73
2022/10/30 09:18:53;;;;;;;10.37;5.47;;;25.80;99.90;;;;;;5114103;28;20834;-72
2022/10/30 09:21:18;;;;;;;7.83;5.40;;;26.00;92.50;;;;;;5114001;28;20199;-73
2022/10/30 09:23:44;;;;;;;10.20;4.53;;;25.80;88.40;;;;;;5114239;28;20267;-73
2022/10/30 09:26:10;;;;;;;6.30;5.10;;;25.30;90.20;;;;;;5113778;28;20172;-72
2022/10/30 09:28:35;;;;;;;8.50;4.50;;;25.20;92.90;;;;;;5112055;28;20714;-72
2022/10/30 09:31:01;;;;;;;8.47;4.67;;;25.60;95.00;;;;;;5111910;28;20498;-72
2022/10/30 09:33:27;;;;;;;7.67;4.77;;;25.60;91.70;;;;;;5111750;28;20594;-72
2022/10/30 09:35:52;;;;;;;5.07;4.17;;;26.40;88.30;;;;;;5111654;28;20661;-72
2022/10/30 09:38:18;;;;;;;10.40;5.20;;;26.90;81.70;;;;;;5114259;28;20626;-73
2022/10/30 09:40:49;;;;;;;7.73;4.77;;;26.50;76.80;;;;;;5115555;28;20191;-73
2022/10/30 09:43:36;;;;;;;5.67;4.57;;;26.70;79.80;;;;;;5115338;28;20172;-73
2022/10/30 09:46:08;;;;;;;5.63;4.20;;;26.10;82.20;;;;;;5099220;28;20454;-72
2022/10/30 09:48:58;;;;;;;8.10;4.60;;;26.10;88.00;;;;;;5115094;28;20807;-72
2022/10/30 09:51:44;;;;;;;8.13;4.20;;;26.30;87.40;;;;;;5115384;28;20402;-72
2022/10/30 09:54:43;;;;;;;11.30;5.40;;;26.90;81.80;;;;;;5116085;28;20415;-73
2022/10/30 09:57:22;;;;;;;9.00;4.97;;;27.00;79.40;;;;;;5116103;28;20429;-73
2022/10/30 10:00:04;;;;;;;7.63;4.60;;;27.10;75.40;;;;;;5114693;28;20454;-72
2022/10/30 10:02:35;;;;;;;7.37;4.70;;;27.40;77.50;;;;;;5116611;28;20399;-73
2022/10/30 10:05:11;;;;;;;6.27;4.43;;;27.00;72.70;;;;;;5115923;28;20769;-72
2022/10/30 10:07:42;;;;;;;5.83;4.30;;;27.10;74.20;;;;;;5115867;28;20891;-73
2022/10/30 10:10:24;;;;;;;9.33;4.70;;;27.60;72.90;;;;;;5116385;28;20438;-73
2022/10/30 10:12:51;;;;;;;9.53;4.10;;;28.30;69.20;;;;;;5116587;28;20890;-72
2022/10/30 10:15:35;;;;;;;8.90;6.07;;;28.60;67.50;;;;;;5116461;28;21102;-73
2022/10/30 10:18:03;;;;;;;6.80;5.00;;;29.40;66.80;;;;;;5115105;27;20454;-70
2022/10/30 10:20:42;;;;;;;5.80;5.00;;;30.20;63.20;;;;;;5114724;28;20446;-71
2022/10/30 10:23:30;;;;;;;5.93;5.27;;;30.50;58.40;;;;;;5114744;28;20414;-70
2022/10/30 10:25:59;;;;;;;9.13;5.30;;;30.80;57.30;;;;;;5114165;28;20799;-70
2022/10/30 10:28:47;;;;;;;8.83;4.77;;;30.80;56.40;;;;;;5114524;28;20435;-70
2022/10/30 10:31:19;;;;;;;7.30;4.50;;;30.70;55.90;;;;;;5114403;28;20449;-73
2022/10/30 10:33:59;;;;;;;8.87;4.73;;;30.90;55.20;;;;;;5114433;28;20505;-73
2022/10/30 10:36:40;;;;;;;8.77;5.87;;;30.60;56.10;;;;;;5114254;28;20735;-73
2022/10/30 10:39:38;;;;;;;7.03;4.10;;;30.70;55.50;;;;;;5114965;28;21045;-73
2022/10/30 10:42:10;;;;;;;6.73;4.80;;;30.40;55.90;;;;;;5094826;28;20404;-71
2022/10/30 10:45:02;;;;;;;5.37;4.00;;;30.40;55.90;;;;;;5093913;28;20479;-70
2022/10/30 10:47:53;;;;;;;6.77;4.50;;;30.60;56.40;;;;;;5093915;28;20400;-72
2022/10/30 10:50:30;;;;;;;7.80;4.50;;;30.70;55.70;;;;;;5100683;28;21015;-73
2022/10/30 10:53:04;;;;;;;6.20;4.53;;;30.80;54.40;;;;;;5115203;28;20407;-73
2022/10/30 10:55:36;;;;;;;7.87;4.57;;;30.80;53.90;;;;;;5114191;28;20498;-74
2022/10/30 10:58:20;;;;;;;7.50;5.00;;;30.80;54.20;;;;;;5114291;28;20446;-72
2022/10/30 11:00:46;;;;;;;7.80;4.20;;;31.40;53.40;;;;;;5114048;28;20439;-72
2022/10/30 11:03:34;;;;;;;6.80;3.67;;;31.50;53.50;;;;;;5114082;28;20495;-72
2022/10/30 11:06:23;;;;;;;8.77;4.90;;;30.60;53.70;;;;;;5084498;28;20188;-72
2022/10/30 11:08:51;;;;;;;5.13;4.50;;;30.00;54.10;;;;;;5113782;28;20488;-72
2022/10/30 11:11:16;;;;;;;6.10;3.97;;;29.30;54.90;;;;;;5112257;28;20413;-73
2022/10/30 11:13:43;;;;;;;9.40;3.63;;;28.60;56.30;;;;;;5113720;28;20407;-72
2022/10/30 11:16:26;;;;;;;9.23;5.03;;;28.30;57.20;;;;;;5113565;28;20281;-72
2022/10/30 11:19:01;;;;;;;5.30;4.17;;;28.80;58.00;;;;;;5113653;28;20541;-72
2022/10/30 11:21:30;;;;;;;7.27;4.40;;;29.00;57.80;;;;;;5113448;28;20502;-73
2022/10/30 11:23:56;;;;;;;6.00;3.70;;;28.80;58.50;;;;;;5113616;28;20840;-72
2022/10/30 11:26:24;;;;;;;5.37;4.07;;;29.00;58.30;;;;;;5113839;28;20399;-72
2022/10/30 11:28:53;;;;;;;7.10;5.20;;;29.20;57.50;;;;;;5114162;28;20185;-72
2022/10/30 11:31:22;;;;;;;4.80;3.73;;;29.20;58.20;;;;;;5114389;28;20904;-72
2022/10/30 11:33:49;;;;;;;5.60;4.93;;;29.40;57.00;;;;;;5113940;28;20407;-73
2022/10/30 11:36:17;;;;;;;6.20;4.90;;;29.70;57.40;;;;;;5113943;28;20441;-73
2022/10/30 11:38:43;;;;;;;8.77;4.57;;;30.10;56.30;;;;;;5114164;28;20808;-72
2022/10/30 11:41:09;;;;;;;6.83;4.40;;;30.20;55.60;;;;;;5112125;28;20421;-72
2022/10/30 11:43:36;;;;;;;6.23;3.33;;;30.50;55.80;;;;;;5112967;28;20173;-72
2022/10/30 11:46:08;;;;;;;4.53;3.30;;;30.60;54.40;;;;;;5112923;28;20399;-72
2022/10/30 11:48:37;;;;;;;4.00;3.10;;;30.20;54.60;;;;;;5112911;28;20387;-72
2022/10/30 11:51:03;;;;;;;6.43;3.50;;;29.70;54.80;;;;;;5113302;28;20406;-71
2022/10/30 11:53:35;;;;;;;5.50;4.20;;;29.30;55.90;;;;;;5113466;28;20482;-72
2022/10/30 11:56:02;;;;;;;6.80;3.77;;;28.80;56.60;;;;;;5112864;28;20411;-73
2022/10/30 11:58:40;;;;;;;7.53;3.80;;;28.70;57.40;;;;;;5113671;28;21102;-72
2022/10/30 12:01:33;;;;;;;10.47;3.93;;;28.60;57.70;;;;;;5112329;28;20397;-73
2022/10/30 12:04:22;;;;;;;4.07;3.10;;;28.20;58.20;;;;;;5112826;28;20476;-71
2022/10/30 12:07:05;;;;;;;5.97;3.47;;;27.80;58.40;;;;;;5112729;28;20422;-73
2022/10/30 12:09:31;;;;;;;4.87;3.00;;;27.70;59.50;;;;;;5112442;28;20775;-72
2022/10/30 12:11:56;;;;;;;8.07;4.40;;;27.40;61.10;;;;;;5114651;28;20405;-72
2022/10/30 12:14:25;;;;;;;7.10;3.77;;;27.30;63.20;;;;;;5114292;28;20593;-72
2022/10/30 12:16:55;;;;;;;5.87;3.60;;;27.30;63.60;;;;;;5113676;28;20173;-72
2022/10/30 12:19:23;;;;;;;6.60;4.17;;;27.00;63.90;;;;;;5112468;28;20457;-72
2022/10/30 12:21:53;;;;;;;16.17;3.80;;;26.90;63.90;;;;;;5112683;28;20532;-72
2022/10/30 12:24:34;;;;;;;8.30;3.90;;;26.90;65.60;;;;;;5112190;28;20422;-72
2022/10/30 12:27:05;;;;;;;5.17;3.30;;;26.90;66.40;;;;;;5112513;28;20521;-72
2022/10/30 12:30:07;;;;;;;5.13;3.07;;;26.70;65.80;;;;;;5112534;28;20509;-71
2022/10/30 12:32:59;;;;;;;7.83;3.80;;;26.60;68.70;;;;;;5113287;28;20428;-72
2022/10/30 12:35:47;;;;;;;7.60;3.40;;;26.30;69.40;;;;;;5106051;28;20410;-72
2022/10/30 12:38:28;;;;;;;6.13;4.20;;;26.10;72.50;;;;;;5112457;28;20457;-71
2022/10/30 12:41:15;;;;;;;4.00;3.30;;;26.30;72.50;;;;;;5112248;28;20429;-71
2022/10/30 12:43:44;;;;;;;13.93;3.20;;;25.90;71.80;;;;;;5112350;28;20757;-71
2022/10/30 12:46:28;;;;;;;8.20;3.77;;;26.00;74.30;;;;;;5112107;28;20441;-71
2022/10/30 12:49:18;;;;;;;6.07;4.00;;;26.20;76.20;;;;;;5111102;28;20430;-72
2022/10/30 12:52:06;;;;;;;9.93;4.90;;;26.50;75.60;;;;;;5111434;28;20422;-72
2022/10/30 12:55:15;;;;;;;8.60;3.63;;;26.70;74.20;;;;;;5112923;28;20604;-72